createdAt,value
2019-04-25T00:02:07.894Z,8.03
2019-04-25T00:04:38.728Z,7.95
2019-04-25T00:07:09.035Z,7.58
2019-04-25T00:09:44.054Z,7.83
2019-04-25T00:12:15.513Z,8.48
2019-04-25T00:14:48.071Z,7.70
2019-04-25T00:17:21.370Z,7.67
2019-04-25T00:19:52.815Z,6.53
2019-04-25T00:22:24.841Z,7.33
2019-04-25T00:25:15.933Z,7.28
2019-04-25T00:27:43.270Z,7.33
2019-04-25T00:30:12.221Z,6.47
2019-04-25T00:32:44.078Z,6.03
2019-04-25T00:35:14.603Z,6.12
2019-04-25T00:37:45.474Z,6.00
2019-04-25T00:40:16.278Z,5.95
2019-04-25T00:42:46.488Z,6.95
2019-04-25T00:45:16.685Z,6.12
2019-04-25T00:47:47.733Z,5.85
2019-04-25T00:50:17.941Z,5.95
2019-04-25T00:52:48.509Z,6.28
2019-04-25T00:55:26.891Z,7.05
2019-04-25T00:57:53.678Z,6.03
2019-04-25T01:00:28.122Z,6.92
2019-04-25T01:03:01.591Z,6.72
2019-04-25T01:05:31.688Z,7.83
2019-04-25T01:08:02.180Z,8.23
2019-04-25T01:10:32.406Z,7.03
2019-04-25T01:13:03.084Z,8.03
2019-04-25T01:15:34.349Z,6.50
2019-04-25T01:18:05.263Z,7.05
2019-04-25T01:20:35.259Z,6.83
2019-04-25T01:23:05.321Z,7.15
2019-04-25T01:25:40.887Z,7.40
2019-04-25T01:28:07.320Z,6.78
2019-04-25T01:30:37.453Z,7.22
2019-04-25T01:33:08.165Z,6.30
2019-04-25T01:35:39.998Z,8.78
2019-04-25T01:38:13.436Z,6.12
2019-04-25T01:43:48.438Z,7.20
2019-04-25T01:46:20.345Z,6.70
2019-04-25T01:48:50.605Z,5.83
2019-04-25T01:51:20.757Z,6.35
2019-04-25T01:53:50.954Z,6.28
2019-04-25T01:56:21.165Z,7.25
2019-04-25T01:58:51.579Z,7.58
2019-04-25T02:01:21.978Z,6.45
2019-04-25T02:03:54.296Z,5.55
2019-04-25T02:06:24.821Z,6.90
2019-04-25T02:08:56.261Z,5.62
2019-04-25T02:11:28.273Z,5.55
2019-04-25T02:13:58.894Z,6.50
2019-04-25T02:16:30.103Z,5.30
2019-04-25T02:19:01.966Z,6.40
2019-04-25T02:21:33.475Z,6.55
2019-04-25T02:24:05.465Z,6.50
2019-04-25T02:26:35.810Z,5.92
2019-04-25T02:29:06.090Z,5.42
2019-04-25T02:31:36.292Z,5.60
2019-04-25T02:34:08.661Z,6.03
2019-04-25T02:36:38.251Z,5.80
2019-04-25T02:39:14.745Z,5.47
2019-04-25T02:41:44.607Z,6.03
2019-04-25T02:44:14.774Z,5.58
2019-04-25T02:46:49.263Z,5.65
2019-04-25T02:49:34.823Z,5.85
2019-04-25T02:51:56.136Z,6.55
2019-04-25T02:54:28.868Z,7.55
2019-04-25T02:56:59.990Z,5.92
2019-04-25T02:59:30.550Z,6.55
2019-04-25T03:02:00.844Z,6.28
2019-04-25T03:04:31.562Z,5.70
2019-04-25T03:07:02.659Z,7.37
2019-04-25T03:09:35.273Z,5.97
2019-04-25T03:12:07.361Z,5.58
2019-04-25T03:14:37.458Z,6.22
2019-04-25T03:17:09.746Z,5.78
2019-04-25T03:19:56.405Z,7.12
2019-04-25T03:22:28.040Z,6.30
2019-04-25T03:24:59.702Z,6.17
2019-04-25T03:27:30.379Z,6.78
2019-04-25T03:30:01.940Z,5.92
2019-04-25T03:32:35.600Z,6.75
2019-04-25T03:35:07.060Z,6.37
2019-04-25T03:37:37.298Z,5.50
2019-04-25T03:40:09.597Z,5.47
2019-04-25T03:42:39.750Z,5.58
2019-04-25T03:45:09.962Z,6.83
2019-04-25T03:47:40.034Z,7.45
2019-04-25T03:50:10.256Z,6.90
2019-04-25T03:52:40.790Z,7.28
2019-04-25T03:55:10.929Z,7.47
2019-04-25T03:57:41.086Z,7.60
2019-04-25T04:00:11.133Z,6.72
2019-04-25T04:02:41.276Z,7.58
2019-04-25T04:05:11.544Z,8.05
2019-04-25T04:07:41.534Z,6.87
2019-04-25T04:10:13.729Z,7.53
2019-04-25T04:12:44.387Z,7.00
2019-04-25T04:15:15.983Z,6.92
2019-04-25T04:17:53.744Z,6.75
2019-04-25T04:20:29.250Z,6.50
2019-04-25T04:23:05.605Z,6.72
2019-04-25T04:25:36.021Z,7.33
2019-04-25T04:28:06.233Z,7.12
2019-04-25T04:30:36.762Z,8.30
2019-04-25T04:33:06.967Z,5.90
2019-04-25T04:35:37.227Z,6.60
2019-04-25T04:38:08.121Z,7.33
2019-04-25T04:40:38.338Z,6.05
2019-04-25T04:43:08.398Z,6.62
2019-04-25T04:45:38.902Z,6.15
2019-04-25T04:48:09.035Z,7.28
2019-04-25T04:50:39.185Z,9.25
2019-04-25T04:53:09.286Z,7.17
2019-04-25T04:55:39.248Z,7.28
2019-04-25T04:58:10.379Z,8.65
2019-04-25T05:00:41.326Z,8.28
2019-04-25T05:03:31.206Z,9.60
2019-04-25T05:06:13.936Z,9.15
2019-04-25T05:08:51.374Z,11.78
2019-04-25T05:11:23.550Z,8.70
2019-04-25T05:13:54.136Z,9.40
2019-04-25T05:16:24.405Z,6.95
2019-04-25T05:18:55.306Z,4.67
2019-04-25T05:21:25.944Z,5.70
2019-04-25T05:23:56.309Z,6.03
2019-04-25T05:26:26.514Z,5.05
2019-04-25T05:28:56.598Z,5.25
2019-04-25T05:31:28.370Z,5.33
2019-04-25T05:33:58.571Z,4.10
2019-04-25T05:36:30.354Z,4.42
2019-04-25T05:39:00.489Z,4.22
2019-04-25T05:41:33.734Z,4.50
2019-04-25T05:44:04.807Z,5.72
2019-04-25T05:46:36.414Z,5.30
2019-04-25T05:49:06.564Z,5.08
2019-04-25T05:51:36.634Z,5.25
2019-04-25T05:54:06.836Z,6.30
2019-04-25T05:56:37.001Z,4.15
2019-04-25T05:59:07.113Z,4.97
2019-04-25T06:01:38.271Z,4.75
2019-04-25T06:04:08.267Z,4.42
2019-04-25T06:06:38.842Z,5.33
2019-04-25T06:09:10.727Z,5.25
2019-04-25T06:11:48.611Z,6.72
2019-04-25T06:14:20.398Z,4.67
2019-04-25T06:16:53.566Z,5.55
2019-04-25T06:19:43.610Z,7.12
2019-04-25T06:22:24.208Z,8.95
2019-04-25T06:24:55.657Z,5.72
2019-04-25T06:27:28.396Z,7.30
2019-04-25T06:30:00.975Z,9.90
2019-04-25T06:32:35.070Z,9.05
2019-04-25T06:35:06.225Z,7.53
2019-04-25T06:37:36.582Z,8.73
2019-04-25T06:40:08.741Z,6.67
2019-04-25T06:42:39.320Z,5.75
2019-04-25T06:45:18.445Z,5.08
2019-04-25T06:48:05.058Z,9.28
2019-04-25T06:50:35.434Z,6.75
2019-04-25T06:53:05.630Z,8.45
2019-04-25T06:55:35.770Z,7.47
2019-04-25T06:58:12.075Z,12.68
2019-04-25T07:00:42.639Z,11.33
2019-04-25T07:03:10.003Z,8.70
2019-04-25T07:05:40.837Z,6.40
2019-04-25T07:08:11.126Z,8.78
2019-04-25T07:10:42.257Z,10.20
2019-04-25T07:13:14.188Z,9.68
2019-04-25T07:15:44.086Z,10.32
2019-04-25T07:18:14.231Z,9.73
2019-04-25T07:20:45.356Z,9.95
2019-04-25T07:23:15.598Z,9.28
2019-04-25T07:25:47.970Z,9.08
2019-04-25T07:28:27.130Z,8.33
2019-04-25T07:31:08.425Z,9.45
2019-04-25T07:36:19.593Z,8.60
2019-04-25T07:38:49.786Z,8.88
2019-04-25T07:41:20.026Z,9.03
2019-04-25T07:43:51.306Z,9.73
2019-04-25T07:46:21.420Z,10.40
2019-04-25T07:48:53.431Z,8.30
2019-04-25T07:51:23.854Z,10.32
2019-04-25T07:53:53.999Z,8.75
2019-04-25T07:56:24.159Z,11.45
2019-04-25T07:58:54.863Z,11.22
2019-04-25T08:01:25.132Z,10.45
2019-04-25T08:03:55.202Z,8.75
2019-04-25T08:06:25.336Z,8.70
2019-04-25T08:08:55.551Z,9.38
2019-04-25T08:11:25.857Z,9.58
2019-04-25T08:14:03.988Z,8.58
2019-04-25T08:16:37.186Z,7.30
2019-04-25T08:19:07.507Z,9.05
2019-04-25T08:21:38.397Z,7.45
2019-04-25T08:24:08.762Z,8.98
2019-04-25T08:26:39.415Z,9.18
2019-04-25T08:29:09.543Z,9.08
2019-04-25T08:31:39.803Z,7.70
2019-04-25T08:34:11.523Z,7.83
2019-04-25T08:36:41.658Z,8.55
2019-04-25T08:39:14.322Z,8.18
2019-04-25T08:41:45.575Z,8.00
2019-04-25T08:44:15.873Z,9.20
2019-04-25T08:46:48.680Z,7.72
2019-04-25T08:49:25.490Z,8.08
2019-04-25T08:51:57.394Z,7.65
2019-04-25T08:54:29.110Z,8.78
2019-04-25T08:57:00.981Z,7.15
2019-04-25T08:59:42.397Z,7.05
2019-04-25T09:02:20.794Z,7.12
2019-04-25T09:04:58.447Z,7.70
2019-04-25T09:07:27.966Z,7.37
2019-04-25T09:09:58.886Z,7.60
2019-04-25T09:12:28.958Z,8.03
2019-04-25T09:14:58.854Z,8.20
2019-04-25T09:17:28.437Z,7.60
2019-04-25T09:19:58.209Z,8.28
2019-04-25T09:22:28.163Z,7.72
2019-04-25T09:24:58.082Z,7.70
2019-04-25T09:27:27.689Z,7.37
2019-04-25T09:29:57.870Z,7.87
2019-04-25T09:32:27.748Z,8.88
2019-04-25T09:34:57.495Z,7.50
2019-04-25T09:37:27.142Z,6.87
2019-04-25T09:40:13.916Z,7.15
2019-04-25T09:42:45.194Z,8.05
2019-04-25T09:45:20.909Z,7.22
2019-04-25T09:47:53.319Z,7.62
2019-04-25T09:50:25.984Z,7.15
2019-04-25T09:52:56.526Z,6.65
2019-04-25T09:55:27.931Z,7.03
2019-04-25T09:57:59.442Z,7.00
2019-04-25T10:00:31.090Z,7.67
2019-04-25T10:03:01.330Z,6.90
2019-04-25T10:05:31.253Z,7.17
2019-04-25T10:08:03.035Z,6.50
2019-04-25T10:10:33.393Z,7.53
2019-04-25T10:13:04.843Z,6.47
2019-04-25T10:15:43.009Z,7.45
2019-04-25T10:18:14.267Z,6.85
2019-04-25T10:20:46.327Z,7.30
2019-04-25T10:23:17.053Z,7.53
2019-04-25T10:25:46.930Z,8.40
2019-04-25T10:28:16.638Z,7.85
2019-04-25T10:30:47.026Z,7.92
2019-04-25T10:33:17.185Z,6.90
2019-04-25T10:35:53.131Z,7.78
2019-04-25T10:38:18.758Z,6.75
2019-04-25T10:40:49.039Z,8.43
2019-04-25T10:43:21.544Z,8.70
2019-04-25T10:45:50.542Z,8.38
2019-04-25T10:48:20.763Z,7.33
2019-04-25T10:50:50.539Z,6.85
2019-04-25T10:53:20.221Z,7.42
2019-04-25T10:55:50.002Z,6.60
2019-04-25T10:58:20.190Z,7.95
2019-04-25T11:00:52.916Z,7.05
2019-04-25T11:03:33.865Z,7.05
2019-04-25T11:06:04.030Z,6.90
2019-04-25T11:08:35.260Z,5.97
2019-04-25T11:11:05.494Z,6.40
2019-04-25T11:13:35.426Z,5.67
2019-04-25T11:16:06.219Z,7.25
2019-04-25T11:18:35.895Z,7.17
2019-04-25T11:21:06.064Z,6.03
2019-04-25T11:23:36.246Z,6.35
2019-04-25T11:26:06.374Z,6.95
2019-04-25T11:28:38.209Z,7.00
2019-04-25T11:31:10.161Z,6.10
2019-04-25T11:33:40.270Z,5.37
2019-04-25T11:36:10.483Z,6.58
2019-04-25T11:38:48.050Z,5.20
2019-04-25T11:41:19.825Z,5.85
2019-04-25T11:43:50.751Z,5.65
2019-04-25T11:46:21.042Z,5.78
2019-04-25T11:48:51.253Z,5.92
2019-04-25T11:51:21.545Z,5.92
2019-04-25T11:53:51.615Z,6.25
2019-04-25T11:56:21.794Z,5.08
2019-04-25T11:58:53.490Z,5.70
2019-04-25T12:01:24.305Z,5.42
2019-04-25T12:03:56.063Z,5.78
2019-04-25T12:06:26.368Z,5.47
2019-04-25T12:08:56.487Z,5.83
2019-04-25T12:11:26.502Z,5.53
2019-04-25T12:13:56.935Z,6.15
2019-04-25T12:16:27.029Z,6.50
2019-04-25T12:18:56.821Z,5.83
2019-04-25T12:21:26.433Z,6.60
2019-04-25T12:23:56.183Z,5.28
2019-04-25T12:26:26.281Z,5.72
2019-04-25T12:28:56.677Z,6.08
2019-04-25T12:31:26.515Z,5.53
2019-04-25T12:33:57.450Z,6.80
2019-04-25T12:36:27.281Z,6.45
2019-04-25T12:38:57.141Z,5.62
2019-04-25T12:41:26.619Z,5.62
2019-04-25T12:44:00.909Z,5.72
2019-04-25T12:46:34.619Z,7.55
2019-04-25T12:49:03.270Z,5.85
2019-04-25T12:51:32.825Z,5.95
2019-04-25T12:54:03.894Z,6.25
2019-04-25T12:56:34.199Z,6.67
2019-04-25T12:59:04.918Z,6.17
2019-04-25T13:01:34.462Z,6.53
2019-04-25T13:04:05.182Z,6.47
2019-04-25T13:06:34.926Z,6.47
2019-04-25T13:09:07.071Z,6.28
2019-04-25T13:11:36.961Z,6.80
2019-04-25T13:14:06.887Z,6.20
2019-04-25T13:16:36.506Z,7.12
2019-04-25T13:19:14.811Z,6.30
2019-04-25T13:21:38.410Z,6.10
2019-04-25T13:24:07.969Z,7.30
2019-04-25T13:26:39.230Z,5.25
2019-04-25T13:29:26.495Z,6.08
2019-04-25T13:32:10.089Z,6.65
2019-04-25T13:34:47.547Z,6.30
2019-04-25T13:37:17.097Z,6.08
2019-04-25T13:39:46.699Z,5.70
2019-04-25T13:42:16.307Z,6.53
2019-04-25T13:44:46.315Z,5.62
2019-04-25T13:47:16.019Z,5.85
2019-04-25T13:49:45.578Z,6.65
2019-04-25T13:52:17.650Z,5.85
2019-04-25T13:54:47.078Z,7.55
2019-04-25T13:57:16.701Z,7.30
2019-04-25T13:59:46.606Z,6.80
2019-04-25T14:02:16.282Z,6.85
2019-04-25T14:04:45.813Z,6.65
2019-04-25T14:07:15.489Z,6.50
2019-04-25T14:09:45.125Z,6.03
2019-04-25T14:12:14.854Z,6.17
2019-04-25T14:14:44.481Z,5.83
2019-04-25T14:17:18.628Z,7.00
2019-04-25T14:19:58.385Z,6.75
2019-04-25T14:22:28.010Z,8.10
2019-04-25T14:24:57.690Z,6.42
2019-04-25T14:27:28.021Z,7.75
2019-04-25T14:29:57.710Z,6.83
2019-04-25T14:32:28.821Z,6.00
2019-04-25T14:34:58.494Z,6.05
2019-04-25T14:37:32.308Z,5.58
2019-04-25T14:39:59.615Z,6.45
2019-04-25T14:42:29.155Z,6.62
2019-04-25T14:44:58.695Z,6.60
2019-04-25T14:47:29.533Z,5.87
2019-04-25T14:49:59.166Z,7.47
2019-04-25T14:52:28.737Z,6.83
2019-04-25T14:55:02.854Z,7.78
2019-04-25T14:57:32.989Z,7.55
2019-04-25T15:00:04.635Z,6.05
2019-04-25T15:02:36.405Z,5.95
2019-04-25T15:05:06.197Z,5.70
2019-04-25T15:07:35.885Z,4.97
2019-04-25T15:10:06.117Z,5.58
2019-04-25T15:12:35.602Z,5.92
2019-04-25T15:15:05.898Z,5.37
2019-04-25T15:17:45.213Z,5.05
2019-04-25T15:20:06.738Z,4.92
2019-04-25T15:22:36.367Z,5.35
2019-04-25T15:25:06.465Z,5.85
2019-04-25T15:27:36.074Z,5.55
2019-04-25T15:30:08.133Z,5.67
2019-04-25T15:32:37.742Z,5.72
2019-04-25T15:35:09.021Z,5.85
2019-04-25T15:37:49.129Z,5.47
2019-04-25T15:40:26.373Z,6.05
2019-04-25T15:42:57.704Z,5.92
2019-04-25T15:45:31.634Z,4.95
2019-04-25T15:48:01.446Z,4.80
2019-04-25T15:50:31.879Z,4.80
2019-04-25T15:53:01.532Z,5.90
2019-04-25T15:55:32.272Z,5.03
2019-04-25T15:58:01.883Z,5.37
2019-04-25T16:00:35.786Z,5.75
2019-04-25T16:03:05.874Z,5.10
2019-04-25T16:05:35.852Z,5.60
2019-04-25T16:08:06.442Z,4.78
2019-04-25T16:10:36.560Z,4.15
2019-04-25T16:13:07.360Z,4.97
2019-04-25T16:15:36.830Z,4.87
2019-04-25T16:18:07.312Z,4.37
2019-04-25T16:20:37.841Z,5.33
2019-04-25T16:23:07.897Z,4.37
2019-04-25T16:25:37.438Z,4.10
2019-04-25T16:28:07.051Z,4.28
2019-04-25T16:30:36.656Z,5.55
2019-04-25T16:33:06.373Z,4.25
2019-04-25T16:35:35.920Z,5.03
2019-04-25T16:38:07.289Z,5.78
2019-04-25T16:40:36.801Z,5.70
2019-04-25T16:43:08.322Z,4.67
2019-04-25T16:45:39.246Z,4.65
2019-04-25T16:48:08.878Z,4.58
2019-04-25T16:50:38.481Z,5.75
2019-04-25T16:53:08.106Z,4.58
2019-04-25T16:55:38.725Z,4.33
2019-04-25T16:58:08.935Z,3.83
2019-04-25T17:00:40.828Z,4.22
2019-04-25T17:03:12.195Z,4.60
2019-04-25T17:05:43.013Z,6.72
2019-04-25T17:08:13.102Z,4.45
2019-04-25T17:10:42.666Z,4.55
2019-04-25T17:13:12.374Z,5.70
2019-04-25T17:15:55.758Z,4.42
2019-04-25T17:18:27.303Z,3.77
2019-04-25T17:21:08.391Z,4.63
2019-04-25T17:23:38.298Z,3.33
2019-04-25T17:26:08.209Z,4.62
2019-04-25T17:28:39.458Z,3.40
2019-04-25T17:31:10.661Z,6.58
2019-04-25T17:33:58.141Z,3.33
2019-04-25T17:36:36.087Z,2.60
2019-04-25T17:39:24.910Z,7.65
2019-04-25T17:41:54.535Z,9.90
2019-04-25T17:44:24.074Z,10.58
2019-04-25T17:47:05.650Z,12.82
2019-04-25T17:49:24.659Z,12.23
2019-04-25T17:51:54.214Z,3.10
2019-04-25T17:54:23.686Z,12.85
2019-04-25T17:56:53.309Z,13.40
2019-04-25T17:59:25.950Z,4.07
2019-04-25T18:01:55.430Z,9.48
2019-04-25T18:04:25.060Z,6.25
2019-04-25T18:06:54.612Z,14.05
2019-04-25T18:09:24.418Z,5.20
2019-04-25T18:11:53.982Z,3.70
2019-04-25T18:14:23.905Z,11.30
2019-04-25T18:16:53.536Z,13.58
2019-04-25T18:19:27.428Z,13.85
2019-04-25T18:21:58.614Z,11.08
2019-04-25T18:24:32.686Z,7.42
2019-04-25T18:27:03.809Z,10.72
2019-04-25T18:29:33.422Z,11.95
2019-04-25T18:32:03.270Z,11.75
2019-04-25T18:34:34.939Z,11.68
2019-04-25T18:37:19.306Z,10.60
2019-04-25T18:40:06.982Z,10.55
2019-04-25T18:42:44.289Z,11.57
2019-04-25T18:45:15.541Z,9.98
2019-04-25T18:47:45.118Z,13.13
2019-04-25T18:50:16.229Z,12.40
2019-04-25T18:52:47.450Z,10.55
2019-04-25T18:55:33.470Z,10.88
2019-04-25T18:58:13.414Z,9.80
2019-04-25T19:00:44.593Z,9.83
2019-04-25T19:03:30.980Z,11.40
2019-04-25T19:06:02.121Z,9.38
2019-04-25T19:08:31.734Z,10.70
2019-04-25T19:11:01.368Z,12.15
2019-04-25T19:13:31.093Z,9.15
2019-04-25T19:16:00.646Z,10.72
2019-04-25T19:18:30.203Z,8.93
2019-04-25T19:20:59.822Z,10.82
2019-04-25T19:23:29.365Z,6.45
2019-04-25T19:26:00.547Z,10.10
2019-04-25T19:28:30.176Z,8.80
2019-04-25T19:31:00.057Z,10.90
2019-04-25T19:33:35.801Z,10.20
2019-04-25T19:36:00.839Z,8.98
2019-04-25T19:38:30.378Z,9.48
2019-04-25T19:41:01.634Z,9.40
2019-04-25T19:43:35.861Z,8.80
2019-04-25T19:46:05.474Z,9.25
2019-04-25T19:48:35.020Z,8.65
2019-04-25T19:51:04.904Z,6.28
2019-04-25T19:53:34.445Z,8.78
2019-04-25T19:56:04.058Z,8.55
2019-04-25T19:58:33.715Z,8.75
2019-04-25T20:01:03.322Z,8.45
2019-04-25T20:03:34.570Z,8.18
2019-04-25T20:06:11.716Z,9.23
2019-04-25T20:09:00.117Z,9.05
2019-04-25T20:11:31.297Z,8.68
2019-04-25T20:14:00.869Z,8.05
2019-04-25T20:16:31.992Z,7.67
2019-04-25T20:19:01.939Z,7.72
2019-04-25T20:21:31.538Z,7.53
2019-04-25T20:24:01.101Z,7.85
2019-04-25T20:26:30.957Z,7.92
2019-04-25T20:29:00.497Z,6.90
2019-04-25T20:31:30.305Z,7.80
2019-04-25T20:34:05.256Z,8.23
2019-04-25T20:36:30.906Z,7.72
2019-04-25T20:39:00.445Z,7.65
2019-04-25T20:41:30.386Z,6.85
2019-04-25T20:43:59.865Z,6.12
2019-04-25T20:46:29.368Z,4.85
2019-04-25T20:48:58.906Z,4.12
2019-04-25T20:51:28.465Z,5.87
2019-04-25T20:53:58.087Z,7.00
2019-04-25T20:56:27.612Z,6.22
2019-04-25T20:58:57.712Z,5.55
2019-04-25T21:01:27.868Z,5.67
2019-04-25T21:03:57.471Z,5.83
2019-04-25T21:06:32.524Z,4.45
2019-04-25T21:09:02.306Z,6.62
2019-04-25T21:11:33.477Z,6.55
2019-04-25T21:14:04.825Z,5.58
2019-04-25T21:16:48.117Z,6.08
2019-04-25T21:19:19.373Z,4.92
2019-04-25T21:21:50.583Z,5.60
2019-04-25T21:24:20.102Z,5.55
2019-04-25T21:26:50.233Z,6.72
2019-04-25T21:29:21.255Z,5.60
2019-04-25T21:31:51.301Z,5.42
2019-04-25T21:34:26.784Z,6.47
2019-04-25T21:36:52.206Z,5.58
2019-04-25T21:39:24.447Z,5.45
2019-04-25T21:41:55.844Z,4.60
2019-04-25T21:44:25.558Z,6.00
2019-04-25T21:46:55.172Z,5.03
2019-04-25T21:49:25.640Z,6.28
2019-04-25T21:51:55.615Z,5.58
2019-04-25T21:54:25.153Z,4.78
2019-04-25T21:56:55.410Z,5.00
2019-04-25T21:59:25.291Z,4.03
2019-04-25T22:01:56.376Z,5.15
2019-04-25T22:04:37.983Z,5.33
2019-04-25T22:06:57.232Z,5.22
2019-04-25T22:09:27.507Z,4.90
2019-04-25T22:11:57.899Z,5.80
2019-04-25T22:14:28.713Z,5.37
2019-04-25T22:16:58.450Z,4.42
2019-04-25T22:19:28.390Z,5.20
2019-04-25T22:21:58.770Z,5.22
2019-04-25T22:24:28.501Z,5.30
2019-04-25T22:26:59.665Z,5.28
2019-04-25T22:29:29.215Z,4.90
2019-04-25T22:32:00.394Z,5.03
2019-04-25T22:34:52.051Z,5.35
2019-04-25T22:37:13.497Z,4.83
2019-04-25T22:39:43.846Z,4.67
2019-04-25T22:42:15.058Z,5.67
2019-04-25T22:44:44.705Z,5.25
2019-04-25T22:47:14.253Z,4.80
2019-04-25T22:49:44.222Z,5.28
2019-04-25T22:52:13.793Z,5.35
2019-04-25T22:54:43.623Z,5.35
2019-04-25T22:57:13.644Z,4.58
2019-04-25T22:59:43.377Z,4.80
2019-04-25T23:02:26.807Z,4.53
2019-04-25T23:05:16.170Z,5.28
2019-04-25T23:07:45.495Z,4.70
2019-04-25T23:10:15.409Z,4.40
2019-04-25T23:12:44.880Z,4.85
2019-04-25T23:15:14.504Z,5.17
2019-04-25T23:17:44.415Z,4.50
2019-04-25T23:20:14.222Z,4.25
2019-04-25T23:22:43.757Z,4.78
2019-04-25T23:25:15.406Z,4.40
2019-04-25T23:27:46.650Z,3.87
2019-04-25T23:30:18.031Z,4.55
2019-04-25T23:32:47.583Z,4.25
2019-04-25T23:35:27.941Z,4.42
2019-04-25T23:37:48.932Z,3.92
2019-04-25T23:40:18.531Z,4.45
2019-04-25T23:42:48.070Z,4.67
2019-04-25T23:45:19.241Z,4.75
2019-04-25T23:47:48.858Z,4.28
2019-04-25T23:50:18.645Z,4.25
2019-04-25T23:52:48.650Z,4.10
2019-04-25T23:55:18.349Z,4.20
2019-04-25T23:57:47.934Z,3.92
